sensor_id;sensor_type;location;lat;lon;timestamp;temperature;humidity
32322;DHT22;61553;48.994;8.940;2024-03-17T00:02:21;4.70;99.90
32322;DHT22;61553;48.994;8.940;2024-03-17T00:04:46;4.80;99.90
32322;DHT22;61553;48.994;8.940;2024-03-17T00:07:12;4.80;99.90
32322;DHT22;61553;48.994;8.940;2024-03-17T00:09:39;4.70;99.90
32322;DHT22;61553;48.994;8.940;2024-03-17T00:12:05;4.60;99.90
32322;DHT22;61553;48.994;8.940;2024-03-17T00:14:31;4.70;99.90
32322;DHT22;61553;48.994;8.940;2024-03-17T00:16:56;4.60;99.90
32322;DHT22;61553;48.994;8.940;2024-03-17T00:19:23;4.60;99.90
32322;DHT22;61553;48.994;8.940;2024-03-17T00:21:50;4.60;99.90
32322;DHT22;61553;48.994;8.940;2024-03-17T00:24:19;4.60;99.90
32322;DHT22;61553;48.994;8.940;2024-03-17T00:26:45;4.60;99.90
32322;DHT22;61553;48.994;8.940;2024-03-17T00:29:11;4.50;99.90
32322;DHT22;61553;48.994;8.940;2024-03-17T00:31:37;4.50;99.90
32322;DHT22;61553;48.994;8.940;2024-03-17T00:34:03;4.50;99.90
32322;DHT22;61553;48.994;8.940;2024-03-17T00:36:29;4.50;99.90
32322;DHT22;61553;48.994;8.940;2024-03-17T00:38:55;4.50;99.90
32322;DHT22;61553;48.994;8.940;2024-03-17T00:41:22;4.40;99.90
32322;DHT22;61553;48.994;8.940;2024-03-17T00:43:51;4.40;99.90
32322;DHT22;61553;48.994;8.940;2024-03-17T00:46:20;4.50;99.90
32322;DHT22;61553;48.994;8.940;2024-03-17T00:48:49;4.50;99.90
32322;DHT22;61553;48.994;8.940;2024-03-17T00:51:15;4.40;99.90
32322;DHT22;61553;48.994;8.940;2024-03-17T00:53:41;4.40;99.90
32322;DHT22;61553;48.994;8.940;2024-03-17T00:56:07;4.40;99.90
32322;DHT22;61553;48.994;8.940;2024-03-17T00:58:33;4.30;99.90
32322;DHT22;61553;48.994;8.940;2024-03-17T01:00:59;4.20;99.90
32322;DHT22;61553;48.994;8.940;2024-03-17T01:03:24;4.20;99.90
32322;DHT22;61553;48.994;8.940;2024-03-17T01:05:50;4.20;99.90
32322;DHT22;61553;48.994;8.940;2024-03-17T01:08:18;4.20;99.90
32322;DHT22;61553;48.994;8.940;2024-03-17T01:10:45;4.10;99.90
32322;DHT22;61553;48.994;8.940;2024-03-17T01:13:15;4.10;99.90
32322;DHT22;61553;48.994;8.940;2024-03-17T01:15:41;4.10;99.90
32322;DHT22;61553;48.994;8.940;2024-03-17T01:18:07;4.00;99.90
32322;DHT22;61553;48.994;8.940;2024-03-17T01:20:34;3.90;99.90
32322;DHT22;61553;48.994;8.940;2024-03-17T01:23:01;4.00;99.90
32322;DHT22;61553;48.994;8.940;2024-03-17T01:25:27;3.90;99.90
32322;DHT22;61553;48.994;8.940;2024-03-17T01:27:53;3.80;99.90
32322;DHT22;61553;48.994;8.940;2024-03-17T01:30:18;3.70;99.90
32322;DHT22;61553;48.994;8.940;2024-03-17T01:32:47;3.70;99.90
32322;DHT22;61553;48.994;8.940;2024-03-17T01:35:14;3.60;99.90
32322;DHT22;61553;48.994;8.940;2024-03-17T01:37:40;3.60;99.90
32322;DHT22;61553;48.994;8.940;2024-03-17T01:40:06;3.60;99.90
32322;DHT22;61553;48.994;8.940;2024-03-17T01:42:37;3.60;99.90
32322;DHT22;61553;48.994;8.940;2024-03-17T01:47:49;3.50;99.90
32322;DHT22;61553;48.994;8.940;2024-03-17T01:50:14;3.50;99.90
32322;DHT22;61553;48.994;8.940;2024-03-17T01:52:46;3.50;99.90
32322;DHT22;61553;48.994;8.940;2024-03-17T01:55:12;3.50;99.90
32322;DHT22;61553;48.994;8.940;2024-03-17T01:57:38;3.50;99.90
32322;DHT22;61553;48.994;8.940;2024-03-17T02:00:06;3.40;99.90
32322;DHT22;61553;48.994;8.940;2024-03-17T02:02:34;3.40;99.90
32322;DHT22;61553;48.994;8.940;2024-03-17T02:05:00;3.30;99.90
32322;DHT22;61553;48.994;8.940;2024-03-17T02:07:25;3.30;99.90
32322;DHT22;61553;48.994;8.940;2024-03-17T02:09:51;3.30;99.90
32322;DHT22;61553;48.994;8.940;2024-03-17T02:12:17;3.30;99.90
32322;DHT22;61553;48.994;8.940;2024-03-17T02:14:42;3.40;99.90
32322;DHT22;61553;48.994;8.940;2024-03-17T02:17:08;3.40;99.90
32322;DHT22;61553;48.994;8.940;2024-03-17T02:19:34;3.30;99.90
32322;DHT22;61553;48.994;8.940;2024-03-17T02:22:00;3.40;99.90
32322;DHT22;61553;48.994;8.940;2024-03-17T02:24:25;3.30;99.90
32322;DHT22;61553;48.994;8.940;2024-03-17T02:26:51;3.20;99.90
32322;DHT22;61553;48.994;8.940;2024-03-17T02:29:17;3.20;99.90
32322;DHT22;61553;48.994;8.940;2024-03-17T02:31:43;3.20;99.90
32322;DHT22;61553;48.994;8.940;2024-03-17T02:34:08;3.20;99.90
32322;DHT22;61553;48.994;8.940;2024-03-17T02:36:34;3.20;99.90
32322;DHT22;61553;48.994;8.940;2024-03-17T02:39:00;3.20;99.90
32322;DHT22;61553;48.994;8.940;2024-03-17T02:41:44;3.20;99.90
32322;DHT22;61553;48.994;8.940;2024-03-17T02:44:11;3.30;99.90
32322;DHT22;61553;48.994;8.940;2024-03-17T02:46:37;3.40;99.90
32322;DHT22;61553;48.994;8.940;2024-03-17T02:49:03;3.30;99.90
32322;DHT22;61553;48.994;8.940;2024-03-17T02:51:29;3.40;99.90
32322;DHT22;61553;48.994;8.940;2024-03-17T02:53:54;3.30;99.90
32322;DHT22;61553;48.994;8.940;2024-03-17T02:56:20;3.50;99.90
32322;DHT22;61553;48.994;8.940;2024-03-17T02:58:47;3.60;99.90
32322;DHT22;61553;48.994;8.940;2024-03-17T03:01:13;3.80;99.90
32322;DHT22;61553;48.994;8.940;2024-03-17T03:03:40;3.70;99.90
32322;DHT22;61553;48.994;8.940;2024-03-17T03:06:06;3.50;99.90
32322;DHT22;61553;48.994;8.940;2024-03-17T03:08:41;3.90;99.90
32322;DHT22;61553;48.994;8.940;2024-03-17T03:11:09;4.00;99.90
32322;DHT22;61553;48.994;8.940;2024-03-17T03:13:41;4.10;99.90
32322;DHT22;61553;48.994;8.940;2024-03-17T03:16:11;4.30;99.90
32322;DHT22;61553;48.994;8.940;2024-03-17T03:18:38;4.40;99.90
32322;DHT22;61553;48.994;8.940;2024-03-17T03:21:06;4.50;99.90
32322;DHT22;61553;48.994;8.940;2024-03-17T03:23:32;4.70;99.90
32322;DHT22;61553;48.994;8.940;2024-03-17T03:26:00;4.80;99.90
32322;DHT22;61553;48.994;8.940;2024-03-17T03:28:29;4.80;99.90
32322;DHT22;61553;48.994;8.940;2024-03-17T03:30:55;4.90;99.90
32322;DHT22;61553;48.994;8.940;2024-03-17T03:33:21;5.00;99.90
32322;DHT22;61553;48.994;8.940;2024-03-17T03:35:46;5.00;99.90
32322;DHT22;61553;48.994;8.940;2024-03-17T03:38:15;5.10;99.90
32322;DHT22;61553;48.994;8.940;2024-03-17T03:40:41;5.00;99.90
32322;DHT22;61553;48.994;8.940;2024-03-17T03:43:10;5.00;99.90
32322;DHT22;61553;48.994;8.940;2024-03-17T03:45:36;5.00;99.90
32322;DHT22;61553;48.994;8.940;2024-03-17T03:48:03;4.90;99.90
32322;DHT22;61553;48.994;8.940;2024-03-17T03:50:30;4.90;99.90
32322;DHT22;61553;48.994;8.940;2024-03-17T03:52:56;4.90;99.90
32322;DHT22;61553;48.994;8.940;2024-03-17T03:55:21;5.00;99.90
32322;DHT22;61553;48.994;8.940;2024-03-17T03:57:47;5.00;99.90
32322;DHT22;61553;48.994;8.940;2024-03-17T04:00:14;5.00;99.90
32322;DHT22;61553;48.994;8.940;2024-03-17T04:02:43;5.10;99.90
32322;DHT22;61553;48.994;8.940;2024-03-17T04:05:10;5.10;99.90
32322;DHT22;61553;48.994;8.940;2024-03-17T04:07:36;5.10;99.90
32322;DHT22;61553;48.994;8.940;2024-03-17T04:10:03;5.20;99.90
32322;DHT22;61553;48.994;8.940;2024-03-17T04:12:30;5.20;99.90
32322;DHT22;61553;48.994;8.940;2024-03-17T04:14:57;5.20;99.90
32322;DHT22;61553;48.994;8.940;2024-03-17T04:17:23;5.20;99.90
32322;DHT22;61553;48.994;8.940;2024-03-17T04:19:52;5.20;99.90
32322;DHT22;61553;48.994;8.940;2024-03-17T04:22:19;5.30;99.90
32322;DHT22;61553;48.994;8.940;2024-03-17T04:24:48;5.30;99.90
32322;DHT22;61553;48.994;8.940;2024-03-17T04:27:22;5.30;99.90
32322;DHT22;61553;48.994;8.940;2024-03-17T04:29:55;5.30;99.90
32322;DHT22;61553;48.994;8.940;2024-03-17T04:32:21;5.30;99.90
32322;DHT22;61553;48.994;8.940;2024-03-17T04:34:47;5.30;99.90
32322;DHT22;61553;48.994;8.940;2024-03-17T04:37:13;5.40;99.90
32322;DHT22;61553;48.994;8.940;2024-03-17T04:39:40;5.30;99.90
32322;DHT22;61553;48.994;8.940;2024-03-17T04:42:07;5.40;99.90
32322;DHT22;61553;48.994;8.940;2024-03-17T04:44:33;5.40;99.90
32322;DHT22;61553;48.994;8.940;2024-03-17T04:46:58;5.50;99.90
32322;DHT22;61553;48.994;8.940;2024-03-17T04:49:24;5.40;99.90
32322;DHT22;61553;48.994;8.940;2024-03-17T04:51:50;5.40;99.90
32322;DHT22;61553;48.994;8.940;2024-03-17T04:54:15;5.30;99.90
32322;DHT22;61553;48.994;8.940;2024-03-17T04:56:41;5.30;99.90
32322;DHT22;61553;48.994;8.940;2024-03-17T04:59:07;5.30;99.90
32322;DHT22;61553;48.994;8.940;2024-03-17T05:01:33;5.20;99.90
32322;DHT22;61553;48.994;8.940;2024-03-17T05:04:02;5.20;99.90
32322;DHT22;61553;48.994;8.940;2024-03-17T05:06:31;5.30;99.90
32322;DHT22;61553;48.994;8.940;2024-03-17T05:08:57;5.30;99.90
32322;DHT22;61553;48.994;8.940;2024-03-17T05:11:23;5.30;99.90
32322;DHT22;61553;48.994;8.940;2024-03-17T05:13:52;5.30;99.90
32322;DHT22;61553;48.994;8.940;2024-03-17T05:16:17;5.30;99.90
32322;DHT22;61553;48.994;8.940;2024-03-17T05:18:43;5.30;99.90
32322;DHT22;61553;48.994;8.940;2024-03-17T05:21:09;5.30;99.90
32322;DHT22;61553;48.994;8.940;2024-03-17T05:23:35;5.30;99.90
32322;DHT22;61553;48.994;8.940;2024-03-17T05:26:02;5.30;99.90
32322;DHT22;61553;48.994;8.940;2024-03-17T05:28:32;5.30;99.90
32322;DHT22;61553;48.994;8.940;2024-03-17T05:30:58;5.40;99.90
32322;DHT22;61553;48.994;8.940;2024-03-17T05:33:25;5.30;99.90
32322;DHT22;61553;48.994;8.940;2024-03-17T05:35:52;5.30;99.90
32322;DHT22;61553;48.994;8.940;2024-03-17T05:38:25;5.30;99.90
32322;DHT22;61553;48.994;8.940;2024-03-17T05:40:58;5.40;99.90
32322;DHT22;61553;48.994;8.940;2024-03-17T05:43:28;5.40;99.90
32322;DHT22;61553;48.994;8.940;2024-03-17T05:45:57;5.40;99.90
32322;DHT22;61553;48.994;8.940;2024-03-17T05:48:23;5.50;99.90
32322;DHT22;61553;48.994;8.940;2024-03-17T05:50:49;5.50;99.90
32322;DHT22;61553;48.994;8.940;2024-03-17T05:53:17;5.50;99.90
32322;DHT22;61553;48.994;8.940;2024-03-17T05:55:44;5.50;99.90
32322;DHT22;61553;48.994;8.940;2024-03-17T05:58:10;5.60;99.90
32322;DHT22;61553;48.994;8.940;2024-03-17T06:00:36;5.60;99.90
32322;DHT22;61553;48.994;8.940;2024-03-17T06:03:03;5.60;99.90
32322;DHT22;61553;48.994;8.940;2024-03-17T06:05:39;5.60;99.90
32322;DHT22;61553;48.994;8.940;2024-03-17T06:08:08;5.60;99.90
32322;DHT22;61553;48.994;8.940;2024-03-17T06:10:35;5.60;99.90
32322;DHT22;61553;48.994;8.940;2024-03-17T06:13:02;5.60;99.90
32322;DHT22;61553;48.994;8.940;2024-03-17T06:15:28;5.70;99.90
32322;DHT22;61553;48.994;8.940;2024-03-17T06:17:54;5.70;99.90
32322;DHT22;61553;48.994;8.940;2024-03-17T06:20:22;5.80;99.90
32322;DHT22;61553;48.994;8.940;2024-03-17T06:22:49;5.90;99.90
32322;DHT22;61553;48.994;8.940;2024-03-17T06:25:15;5.90;99.90
32322;DHT22;61553;48.994;8.940;2024-03-17T06:27:40;6.10;99.90
32322;DHT22;61553;48.994;8.940;2024-03-17T06:30:06;6.00;99.90
32322;DHT22;61553;48.994;8.940;2024-03-17T06:32:36;6.10;99.90
32322;DHT22;61553;48.994;8.940;2024-03-17T06:35:02;6.20;99.90
32322;DHT22;61553;48.994;8.940;2024-03-17T06:37:28;6.20;99.90
32322;DHT22;61553;48.994;8.940;2024-03-17T06:39:53;6.30;99.90
32322;DHT22;61553;48.994;8.940;2024-03-17T06:42:19;6.40;99.90
32322;DHT22;61553;48.994;8.940;2024-03-17T06:44:45;6.40;99.90
32322;DHT22;61553;48.994;8.940;2024-03-17T06:47:10;6.50;99.90
32322;DHT22;61553;48.994;8.940;2024-03-17T06:49:36;6.50;99.90
32322;DHT22;61553;48.994;8.940;2024-03-17T06:52:02;6.50;99.90
32322;DHT22;61553;48.994;8.940;2024-03-17T06:54:28;6.50;99.90
32322;DHT22;61553;48.994;8.940;2024-03-17T06:56:53;6.50;99.90
32322;DHT22;61553;48.994;8.940;2024-03-17T06:59:19;6.60;99.90
32322;DHT22;61553;48.994;8.940;2024-03-17T07:01:46;6.70;99.90
32322;DHT22;61553;48.994;8.940;2024-03-17T07:04:12;6.80;99.90
32322;DHT22;61553;48.994;8.940;2024-03-17T07:06:38;6.90;99.90
32322;DHT22;61553;48.994;8.940;2024-03-17T07:09:04;7.00;99.90
32322;DHT22;61553;48.994;8.940;2024-03-17T07:11:29;7.00;99.90
32322;DHT22;61553;48.994;8.940;2024-03-17T07:13:55;7.00;99.90
32322;DHT22;61553;48.994;8.940;2024-03-17T07:16:20;7.10;99.90
32322;DHT22;61553;48.994;8.940;2024-03-17T07:18:51;7.20;99.90
32322;DHT22;61553;48.994;8.940;2024-03-17T07:21:18;7.30;99.90
32322;DHT22;61553;48.994;8.940;2024-03-17T07:23:44;7.30;99.90
32322;DHT22;61553;48.994;8.940;2024-03-17T07:26:10;7.30;99.90
32322;DHT22;61553;48.994;8.940;2024-03-17T07:28:36;7.50;99.90
32322;DHT22;61553;48.994;8.940;2024-03-17T07:31:08;7.60;99.90
32322;DHT22;61553;48.994;8.940;2024-03-17T07:33:33;7.60;99.90
32322;DHT22;61553;48.994;8.940;2024-03-17T07:35:59;7.60;99.90
32322;DHT22;61553;48.994;8.940;2024-03-17T07:38:29;7.70;99.90
32322;DHT22;61553;48.994;8.940;2024-03-17T07:41:02;7.70;99.90
32322;DHT22;61553;48.994;8.940;2024-03-17T07:43:29;7.80;99.90
32322;DHT22;61553;48.994;8.940;2024-03-17T07:46:05;8.00;99.90
32322;DHT22;61553;48.994;8.940;2024-03-17T07:48:33;8.10;99.90
32322;DHT22;61553;48.994;8.940;2024-03-17T07:51:04;8.30;99.90
32322;DHT22;61553;48.994;8.940;2024-03-17T07:53:30;8.40;99.90
32322;DHT22;61553;48.994;8.940;2024-03-17T07:56:01;8.50;99.90
32322;DHT22;61553;48.994;8.940;2024-03-17T07:58:27;8.60;99.90
32322;DHT22;61553;48.994;8.940;2024-03-17T08:00:57;8.60;99.90
32322;DHT22;61553;48.994;8.940;2024-03-17T08:03:26;8.60;99.90
32322;DHT22;61553;48.994;8.940;2024-03-17T08:05:52;8.70;99.90
32322;DHT22;61553;48.994;8.940;2024-03-17T08:08:18;8.80;99.90
32322;DHT22;61553;48.994;8.940;2024-03-17T08:10:44;8.90;99.90
32322;DHT22;61553;48.994;8.940;2024-03-17T08:13:10;8.90;99.90
32322;DHT22;61553;48.994;8.940;2024-03-17T08:15:36;8.90;99.90
32322;DHT22;61553;48.994;8.940;2024-03-17T08:18:02;9.10;99.90
32322;DHT22;61553;48.994;8.940;2024-03-17T08:20:29;9.20;99.90
32322;DHT22;61553;48.994;8.940;2024-03-17T08:22:55;9.30;99.90
32322;DHT22;61553;48.994;8.940;2024-03-17T08:25:21;9.30;99.90
32322;DHT22;61553;48.994;8.940;2024-03-17T08:27:47;9.40;99.90
32322;DHT22;61553;48.994;8.940;2024-03-17T08:30:12;9.50;99.90
32322;DHT22;61553;48.994;8.940;2024-03-17T08:32:41;9.70;99.90
32322;DHT22;61553;48.994;8.940;2024-03-17T08:35:07;9.90;99.90
32322;DHT22;61553;48.994;8.940;2024-03-17T08:37:36;10.00;99.90
32322;DHT22;61553;48.994;8.940;2024-03-17T08:40:01;10.30;99.90
32322;DHT22;61553;48.994;8.940;2024-03-17T08:42:27;10.60;99.90
32322;DHT22;61553;48.994;8.940;2024-03-17T08:44:53;10.90;99.90
32322;DHT22;61553;48.994;8.940;2024-03-17T08:47:19;11.10;99.90
32322;DHT22;61553;48.994;8.940;2024-03-17T08:49:45;11.20;99.90
32322;DHT22;61553;48.994;8.940;2024-03-17T08:52:11;11.40;99.90
32322;DHT22;61553;48.994;8.940;2024-03-17T08:54:37;11.50;99.90
32322;DHT22;61553;48.994;8.940;2024-03-17T08:57:02;11.60;99.90
32322;DHT22;61553;48.994;8.940;2024-03-17T08:59:28;11.90;99.90
32322;DHT22;61553;48.994;8.940;2024-03-17T09:01:53;11.70;99.90
32322;DHT22;61553;48.994;8.940;2024-03-17T09:04:19;11.80;99.90
32322;DHT22;61553;48.994;8.940;2024-03-17T09:06:45;11.80;99.90
32322;DHT22;61553;48.994;8.940;2024-03-17T09:09:10;12.00;99.90
32322;DHT22;61553;48.994;8.940;2024-03-17T09:11:39;12.10;99.90
32322;DHT22;61553;48.994;8.940;2024-03-17T09:14:05;12.30;99.90
32322;DHT22;61553;48.994;8.940;2024-03-17T09:16:30;12.50;99.90
32322;DHT22;61553;48.994;8.940;2024-03-17T09:18:57;12.50;99.90
32322;DHT22;61553;48.994;8.940;2024-03-17T09:21:23;12.40;99.90
32322;DHT22;61553;48.994;8.940;2024-03-17T09:23:49;12.40;99.90
32322;DHT22;61553;48.994;8.940;2024-03-17T09:26:15;12.70;99.90
32322;DHT22;61553;48.994;8.940;2024-03-17T09:28:43;13.10;99.90
32322;DHT22;61553;48.994;8.940;2024-03-17T09:31:10;13.60;99.90
32322;DHT22;61553;48.994;8.940;2024-03-17T09:33:36;13.70;99.90
32322;DHT22;61553;48.994;8.940;2024-03-17T09:36:05;13.90;99.90
32322;DHT22;61553;48.994;8.940;2024-03-17T09:38:32;14.10;99.90
32322;DHT22;61553;48.994;8.940;2024-03-17T09:40:58;14.30;99.90
32322;DHT22;61553;48.994;8.940;2024-03-17T09:43:26;14.50;99.90
32322;DHT22;61553;48.994;8.940;2024-03-17T09:45:52;14.80;99.90
32322;DHT22;61553;48.994;8.940;2024-03-17T09:48:21;15.10;99.90
32322;DHT22;61553;48.994;8.940;2024-03-17T09:50:50;15.60;99.90
32322;DHT22;61553;48.994;8.940;2024-03-17T09:53:17;16.00;99.90
32322;DHT22;61553;48.994;8.940;2024-03-17T09:55:45;16.50;99.90
32322;DHT22;61553;48.994;8.940;2024-03-17T09:58:19;17.00;99.90
32322;DHT22;61553;48.994;8.940;2024-03-17T10:00:46;17.50;99.90
32322;DHT22;61553;48.994;8.940;2024-03-17T10:03:12;18.50;97.20
32322;DHT22;61553;48.994;8.940;2024-03-17T10:05:38;19.10;95.00
32322;DHT22;61553;48.994;8.940;2024-03-17T10:08:04;18.80;93.40
32322;DHT22;61553;48.994;8.940;2024-03-17T10:10:30;19.60;92.60
32322;DHT22;61553;48.994;8.940;2024-03-17T10:12:55;19.50;92.10
32322;DHT22;61553;48.994;8.940;2024-03-17T10:15:21;19.30;91.30
32322;DHT22;61553;48.994;8.940;2024-03-17T10:17:49;19.00;91.80
32322;DHT22;61553;48.994;8.940;2024-03-17T10:22:58;18.10;92.60
32322;DHT22;61553;48.994;8.940;2024-03-17T10:25:26;17.60;92.30
32322;DHT22;61553;48.994;8.940;2024-03-17T10:27:53;17.10;93.80
32322;DHT22;61553;48.994;8.940;2024-03-17T10:30:19;16.60;95.20
32322;DHT22;61553;48.994;8.940;2024-03-17T10:32:52;16.60;95.70
32322;DHT22;61553;48.994;8.940;2024-03-17T10:38:02;16.90;94.80
32322;DHT22;61553;48.994;8.940;2024-03-17T10:40:29;17.30;93.40
32322;DHT22;61553;48.994;8.940;2024-03-17T10:42:57;18.10;92.80
32322;DHT22;61553;48.994;8.940;2024-03-17T10:45:23;18.80;91.40
32322;DHT22;61553;48.994;8.940;2024-03-17T10:47:50;19.40;89.30
32322;DHT22;61553;48.994;8.940;2024-03-17T10:50:21;20.10;84.40
32322;DHT22;61553;48.994;8.940;2024-03-17T10:52:49;21.30;76.60
32322;DHT22;61553;48.994;8.940;2024-03-17T10:55:23;22.20;73.40
32322;DHT22;61553;48.994;8.940;2024-03-17T10:57:51;23.10;68.30
32322;DHT22;61553;48.994;8.940;2024-03-17T11:00:21;23.00;65.40
32322;DHT22;61553;48.994;8.940;2024-03-17T11:02:49;23.30;63.40
32322;DHT22;61553;48.994;8.940;2024-03-17T11:05:36;24.00;60.60
32322;DHT22;61553;48.994;8.940;2024-03-17T11:08:03;24.30;60.20
32322;DHT22;61553;48.994;8.940;2024-03-17T11:10:32;23.80;56.30
32322;DHT22;61553;48.994;8.940;2024-03-17T11:12:59;23.60;57.10
32322;DHT22;61553;48.994;8.940;2024-03-17T11:20:39;23.80;54.90
32322;DHT22;61553;48.994;8.940;2024-03-17T11:23:05;23.70;54.40
32322;DHT22;61553;48.994;8.940;2024-03-17T11:28:03;22.60;54.00
32322;DHT22;61553;48.994;8.940;2024-03-17T11:38:54;21.60;55.60
32322;DHT22;61553;48.994;8.940;2024-03-17T11:41:40;21.60;53.90
32322;DHT22;61553;48.994;8.940;2024-03-17T11:44:26;22.00;52.10
32322;DHT22;61553;48.994;8.940;2024-03-17T11:46:59;22.00;53.20
32322;DHT22;61553;48.994;8.940;2024-03-17T11:49:30;22.60;52.60
32322;DHT22;61553;48.994;8.940;2024-03-17T11:51:58;22.40;52.40
32322;DHT22;61553;48.994;8.940;2024-03-17T11:54:29;22.00;52.70
32322;DHT22;61553;48.994;8.940;2024-03-17T11:57:03;21.90;52.60
32322;DHT22;61553;48.994;8.940;2024-03-17T11:59:29;21.50;52.90
32322;DHT22;61553;48.994;8.940;2024-03-17T12:01:55;20.50;54.70
32322;DHT22;61553;48.994;8.940;2024-03-17T12:04:22;19.80;56.20
32322;DHT22;61553;48.994;8.940;2024-03-17T12:06:50;19.70;57.20
32322;DHT22;61553;48.994;8.940;2024-03-17T12:09:27;19.20;58.30
32322;DHT22;61553;48.994;8.940;2024-03-17T12:12:06;18.80;60.70
32322;DHT22;61553;48.994;8.940;2024-03-17T12:14:33;18.40;61.50
32322;DHT22;61553;48.994;8.940;2024-03-17T12:17:07;18.20;61.80
32322;DHT22;61553;48.994;8.940;2024-03-17T12:19:34;18.50;61.90
32322;DHT22;61553;48.994;8.940;2024-03-17T12:22:01;18.50;61.40
32322;DHT22;61553;48.994;8.940;2024-03-17T12:24:29;18.30;62.90
32322;DHT22;61553;48.994;8.940;2024-03-17T12:26:56;18.10;63.10
32322;DHT22;61553;48.994;8.940;2024-03-17T12:29:35;18.00;62.50
32322;DHT22;61553;48.994;8.940;2024-03-17T12:34:35;18.10;63.30
32322;DHT22;61553;48.994;8.940;2024-03-17T12:37:02;18.10;63.70
32322;DHT22;61553;48.994;8.940;2024-03-17T12:39:34;18.00;64.90
32322;DHT22;61553;48.994;8.940;2024-03-17T12:44:56;18.00;64.00
32322;DHT22;61553;48.994;8.940;2024-03-17T12:49:50;18.00;63.60
32322;DHT22;61553;48.994;8.940;2024-03-17T12:52:23;17.90;64.40
32322;DHT22;61553;48.994;8.940;2024-03-17T12:57:52;17.50;63.80
32322;DHT22;61553;48.994;8.940;2024-03-17T13:00:59;17.30;66.20
32322;DHT22;61553;48.994;8.940;2024-03-17T13:03:36;17.30;65.90
32322;DHT22;61553;48.994;8.940;2024-03-17T13:06:03;17.40;66.40
32322;DHT22;61553;48.994;8.940;2024-03-17T13:08:29;17.30;67.20
32322;DHT22;61553;48.994;8.940;2024-03-17T13:10:57;17.20;66.80
32322;DHT22;61553;48.994;8.940;2024-03-17T13:13:23;17.20;67.30
32322;DHT22;61553;48.994;8.940;2024-03-17T13:15:48;17.30;67.30
32322;DHT22;61553;48.994;8.940;2024-03-17T13:18:18;17.30;66.60
32322;DHT22;61553;48.994;8.940;2024-03-17T13:20:45;17.30;67.00
32322;DHT22;61553;48.994;8.940;2024-03-17T13:23:18;17.40;66.60
32322;DHT22;61553;48.994;8.940;2024-03-17T13:25:44;17.60;66.90
32322;DHT22;61553;48.994;8.940;2024-03-17T13:28:10;17.50;67.20
32322;DHT22;61553;48.994;8.940;2024-03-17T13:30:36;17.50;66.00
32322;DHT22;61553;48.994;8.940;2024-03-17T13:33:03;17.70;65.60
32322;DHT22;61553;48.994;8.940;2024-03-17T13:35:34;17.80;66.00
32322;DHT22;61553;48.994;8.940;2024-03-17T13:38:00;17.80;66.30
32322;DHT22;61553;48.994;8.940;2024-03-17T13:40:29;17.70;66.60
32322;DHT22;61553;48.994;8.940;2024-03-17T13:42:56;17.70;66.10
32322;DHT22;61553;48.994;8.940;2024-03-17T13:45:24;17.90;66.90
32322;DHT22;61553;48.994;8.940;2024-03-17T13:47:53;17.90;66.10
32322;DHT22;61553;48.994;8.940;2024-03-17T13:50:20;18.10;65.40
32322;DHT22;61553;48.994;8.940;2024-03-17T13:52:46;18.20;65.10
32322;DHT22;61553;48.994;8.940;2024-03-17T13:55:15;18.30;65.10
32322;DHT22;61553;48.994;8.940;2024-03-17T13:57:45;18.20;65.70
32322;DHT22;61553;48.994;8.940;2024-03-17T14:00:12;18.20;65.10
32322;DHT22;61553;48.994;8.940;2024-03-17T14:02:45;18.20;64.20
32322;DHT22;61553;48.994;8.940;2024-03-17T14:05:13;18.40;64.20
32322;DHT22;61553;48.994;8.940;2024-03-17T14:07:39;18.30;64.80
32322;DHT22;61553;48.994;8.940;2024-03-17T14:10:05;18.30;66.20
32322;DHT22;61553;48.994;8.940;2024-03-17T14:12:33;18.30;65.90
32322;DHT22;61553;48.994;8.940;2024-03-17T14:14:59;18.20;66.30
32322;DHT22;61553;48.994;8.940;2024-03-17T14:17:25;18.20;66.30
32322;DHT22;61553;48.994;8.940;2024-03-17T14:19:50;18.30;65.90
32322;DHT22;61553;48.994;8.940;2024-03-17T14:22:16;17.90;66.30
32322;DHT22;61553;48.994;8.940;2024-03-17T14:24:42;17.70;67.20
32322;DHT22;61553;48.994;8.940;2024-03-17T14:27:07;17.70;67.90
32322;DHT22;61553;48.994;8.940;2024-03-17T14:29:37;17.50;68.30
32322;DHT22;61553;48.994;8.940;2024-03-17T14:32:03;17.40;68.50
32322;DHT22;61553;48.994;8.940;2024-03-17T14:34:29;17.50;68.90
32322;DHT22;61553;48.994;8.940;2024-03-17T14:37:02;17.50;68.00
32322;DHT22;61553;48.994;8.940;2024-03-17T14:39:28;17.60;68.30
32322;DHT22;61553;48.994;8.940;2024-03-17T14:41:55;17.50;67.50
32322;DHT22;61553;48.994;8.940;2024-03-17T14:44:21;17.60;66.80
32322;DHT22;61553;48.994;8.940;2024-03-17T14:46:47;17.90;66.90
32322;DHT22;61553;48.994;8.940;2024-03-17T14:49:13;17.90;67.00
32322;DHT22;61553;48.994;8.940;2024-03-17T14:51:39;18.00;66.30
32322;DHT22;61553;48.994;8.940;2024-03-17T14:54:05;17.80;67.10
32322;DHT22;61553;48.994;8.940;2024-03-17T14:56:31;17.60;68.00
32322;DHT22;61553;48.994;8.940;2024-03-17T14:58:57;17.40;67.80
32322;DHT22;61553;48.994;8.940;2024-03-17T15:01:22;17.20;68.60
32322;DHT22;61553;48.994;8.940;2024-03-17T15:03:48;17.00;69.90
32322;DHT22;61553;48.994;8.940;2024-03-17T15:06:13;16.70;69.20
32322;DHT22;61553;48.994;8.940;2024-03-17T15:08:40;16.60;71.00
32322;DHT22;61553;48.994;8.940;2024-03-17T15:11:06;16.60;70.30
32322;DHT22;61553;48.994;8.940;2024-03-17T15:13:34;16.70;70.90
32322;DHT22;61553;48.994;8.940;2024-03-17T15:16:00;16.60;71.30
32322;DHT22;61553;48.994;8.940;2024-03-17T15:18:28;16.60;71.60
32322;DHT22;61553;48.994;8.940;2024-03-17T15:20:54;16.70;71.10
32322;DHT22;61553;48.994;8.940;2024-03-17T15:23:23;16.50;71.10
32322;DHT22;61553;48.994;8.940;2024-03-17T15:26:06;16.40;71.70
32322;DHT22;61553;48.994;8.940;2024-03-17T15:28:36;16.50;71.30
32322;DHT22;61553;48.994;8.940;2024-03-17T15:31:03;16.50;71.90
32322;DHT22;61553;48.994;8.940;2024-03-17T15:33:29;16.70;71.20
32322;DHT22;61553;48.994;8.940;2024-03-17T15:35:55;16.70;71.20
32322;DHT22;61553;48.994;8.940;2024-03-17T15:38:20;16.60;70.30
32322;DHT22;61553;48.994;8.940;2024-03-17T15:40:47;16.80;70.20
32322;DHT22;61553;48.994;8.940;2024-03-17T15:43:13;16.80;70.70
32322;DHT22;61553;48.994;8.940;2024-03-17T15:45:39;16.80;70.40
32322;DHT22;61553;48.994;8.940;2024-03-17T15:48:05;16.50;71.60
32322;DHT22;61553;48.994;8.940;2024-03-17T15:50:31;16.40;71.60
32322;DHT22;61553;48.994;8.940;2024-03-17T15:52:57;16.30;72.70
32322;DHT22;61553;48.994;8.940;2024-03-17T15:55:22;16.10;72.80
32322;DHT22;61553;48.994;8.940;2024-03-17T15:57:49;15.90;73.30
32322;DHT22;61553;48.994;8.940;2024-03-17T16:00:14;15.70;74.00
32322;DHT22;61553;48.994;8.940;2024-03-17T16:02:44;15.60;74.00
32322;DHT22;61553;48.994;8.940;2024-03-17T16:05:10;15.40;75.10
32322;DHT22;61553;48.994;8.940;2024-03-17T16:07:38;15.10;75.50
32322;DHT22;61553;48.994;8.940;2024-03-17T16:10:04;15.00;76.30
32322;DHT22;61553;48.994;8.940;2024-03-17T16:12:31;14.90;78.00
32322;DHT22;61553;48.994;8.940;2024-03-17T16:14:57;14.80;78.50
32322;DHT22;61553;48.994;8.940;2024-03-17T16:17:28;14.70;78.40